createdAt,value
2022-10-26T00:00:34.307Z,15.50
2022-10-26T00:03:01.062Z,15.50
2022-10-26T00:05:27.803Z,15.50
2022-10-26T00:07:54.600Z,15.50
2022-10-26T00:10:21.918Z,15.50
2022-10-26T00:12:51.273Z,15.50
2022-10-26T00:15:19.993Z,15.50
2022-10-26T00:17:48.407Z,15.50
2022-10-26T00:20:15.439Z,15.60
2022-10-26T00:22:42.399Z,15.60
2022-10-26T00:25:09.613Z,15.60
2022-10-26T00:27:36.441Z,15.70
2022-10-26T00:30:05.396Z,15.60
2022-10-26T00:32:32.955Z,15.60
2022-10-26T00:35:10.397Z,15.60
2022-10-26T00:37:47.218Z,15.60
2022-10-26T00:40:14.221Z,15.60
2022-10-26T00:42:40.931Z,15.60
2022-10-26T00:45:21.796Z,15.60
2022-10-26T00:47:56.590Z,15.70
2022-10-26T00:50:29.864Z,15.70
2022-10-26T00:52:59.178Z,15.70
2022-10-26T00:55:32.044Z,15.70
2022-10-26T00:58:00.551Z,15.70
2022-10-26T01:00:27.315Z,15.70
2022-10-26T01:02:57.231Z,15.80
2022-10-26T01:05:24.637Z,15.80
2022-10-26T01:07:52.239Z,15.90
2022-10-26T01:10:19.184Z,15.90
2022-10-26T01:12:46.277Z,16.00
2022-10-26T01:15:13.536Z,16.00
2022-10-26T01:17:46.675Z,16.00
2022-10-26T01:20:19.501Z,16.10
2022-10-26T01:23:13.741Z,16.10
2022-10-26T01:26:05.642Z,16.10
2022-10-26T01:28:35.355Z,16.10
2022-10-26T01:31:07.628Z,16.20
2022-10-26T01:33:49.492Z,16.20
2022-10-26T01:39:16.379Z,16.40
2022-10-26T01:41:51.358Z,16.40
2022-10-26T01:44:39.568Z,16.50
2022-10-26T01:47:07.981Z,16.50
2022-10-26T01:50:00.253Z,16.60
2022-10-26T01:52:28.112Z,16.60
2022-10-26T01:55:02.744Z,16.70
2022-10-26T01:57:33.778Z,16.70
2022-10-26T02:00:10.489Z,16.70
2022-10-26T02:02:50.231Z,16.70
2022-10-26T02:05:44.852Z,16.70
2022-10-26T02:08:26.727Z,16.70
2022-10-26T02:11:15.157Z,16.60
2022-10-26T02:14:00.250Z,16.60
2022-10-26T02:16:27.564Z,16.50
2022-10-26T02:19:19.714Z,16.60
2022-10-26T02:21:50.944Z,16.60
2022-10-26T02:24:19.320Z,16.70
2022-10-26T02:26:48.581Z,16.60
2022-10-26T02:29:19.330Z,16.60
2022-10-26T02:31:49.153Z,16.60
2022-10-26T02:34:21.536Z,16.70
2022-10-26T02:36:53.147Z,16.70
2022-10-26T02:39:20.690Z,16.70
2022-10-26T02:41:48.840Z,16.80
2022-10-26T02:44:23.180Z,16.70
2022-10-26T02:46:51.536Z,16.70
2022-10-26T02:49:18.883Z,16.70
2022-10-26T02:51:53.621Z,16.70
2022-10-26T02:54:34.952Z,16.70
2022-10-26T02:57:15.104Z,16.60
2022-10-26T02:59:44.810Z,16.60
2022-10-26T03:02:12.896Z,16.70
2022-10-26T03:04:39.747Z,16.70
2022-10-26T03:07:06.485Z,16.70
2022-10-26T03:09:33.273Z,16.70
2022-10-26T03:12:00.104Z,16.70
2022-10-26T03:14:26.841Z,16.60
2022-10-26T03:16:53.668Z,16.70
2022-10-26T03:19:20.461Z,16.60
2022-10-26T03:21:47.263Z,16.60
2022-10-26T03:24:14.007Z,16.60
2022-10-26T03:26:40.930Z,16.60
2022-10-26T03:29:08.972Z,16.60
2022-10-26T03:31:35.920Z,16.60
2022-10-26T03:34:02.640Z,16.70
2022-10-26T03:36:29.441Z,16.70
2022-10-26T03:38:56.112Z,16.70
2022-10-26T03:41:22.861Z,16.80
2022-10-26T03:43:49.553Z,16.80
2022-10-26T03:46:16.337Z,16.70
2022-10-26T03:48:43.100Z,16.80
2022-10-26T03:51:09.877Z,16.80
2022-10-26T03:53:36.666Z,16.80
2022-10-26T03:56:03.641Z,16.80
2022-10-26T03:58:30.418Z,16.70
2022-10-26T04:00:57.179Z,16.70
2022-10-26T04:03:23.934Z,16.70
2022-10-26T04:05:50.817Z,16.70
2022-10-26T04:08:17.659Z,16.60
2022-10-26T04:10:46.071Z,16.60
2022-10-26T04:13:12.873Z,16.60
2022-10-26T04:15:40.640Z,16.60
2022-10-26T04:18:08.732Z,16.60
2022-10-26T04:20:36.682Z,16.70
2022-10-26T04:23:06.388Z,16.60
2022-10-26T04:25:33.968Z,16.70
2022-10-26T04:28:02.455Z,16.70
2022-10-26T04:30:29.275Z,16.70
2022-10-26T04:32:56.256Z,16.80
2022-10-26T04:35:23.126Z,16.80
2022-10-26T04:37:50.027Z,16.80
2022-10-26T04:40:16.928Z,16.80
2022-10-26T04:42:47.927Z,16.80
2022-10-26T04:45:16.881Z,16.80
2022-10-26T04:47:43.970Z,16.70
2022-10-26T04:50:12.997Z,16.70
2022-10-26T04:52:40.823Z,16.70
2022-10-26T04:55:08.064Z,16.70
2022-10-26T04:57:35.457Z,16.70
2022-10-26T05:00:04.079Z,16.70
2022-10-26T05:02:31.038Z,16.70
2022-10-26T05:04:57.957Z,16.70
2022-10-26T05:07:24.688Z,16.70
2022-10-26T05:09:51.406Z,16.80
2022-10-26T05:12:18.180Z,16.80
2022-10-26T05:14:44.898Z,16.70
2022-10-26T05:17:11.789Z,16.80
2022-10-26T05:19:38.717Z,16.80
2022-10-26T05:22:05.698Z,16.80
2022-10-26T05:24:32.430Z,16.70
2022-10-26T05:26:59.190Z,16.70
2022-10-26T05:29:25.923Z,16.70
2022-10-26T05:31:52.656Z,16.70
2022-10-26T05:34:19.375Z,16.80
2022-10-26T05:36:46.071Z,16.70
2022-10-26T05:39:12.806Z,16.80
2022-10-26T05:41:39.473Z,16.80
2022-10-26T05:44:06.136Z,16.80
2022-10-26T05:46:32.815Z,16.80
2022-10-26T05:49:01.021Z,16.80
2022-10-26T05:51:27.785Z,16.80
2022-10-26T05:53:54.712Z,16.90
2022-10-26T05:56:35.116Z,16.90
2022-10-26T05:59:02.381Z,16.90
2022-10-26T06:01:41.077Z,16.90
2022-10-26T06:04:38.574Z,16.90
2022-10-26T06:07:12.302Z,16.90
2022-10-26T06:09:40.173Z,16.90
2022-10-26T06:12:07.823Z,17.00
2022-10-26T06:14:35.533Z,17.00
2022-10-26T06:17:32.051Z,17.00
2022-10-26T06:20:17.535Z,17.00
2022-10-26T06:23:01.288Z,17.00
2022-10-26T06:25:45.707Z,17.00
2022-10-26T06:31:05.038Z,17.00
2022-10-26T06:33:32.244Z,17.00
2022-10-26T06:36:19.742Z,17.10
2022-10-26T06:38:48.263Z,17.10
2022-10-26T06:41:18.998Z,17.10
2022-10-26T06:43:46.276Z,17.10
2022-10-26T06:46:48.046Z,17.20
2022-10-26T06:49:36.330Z,17.20
2022-10-26T06:52:18.205Z,17.20
2022-10-26T06:54:49.721Z,17.30
2022-10-26T06:57:21.484Z,17.30
2022-10-26T06:59:57.113Z,17.30
2022-10-26T07:02:24.439Z,17.30
2022-10-26T07:04:51.329Z,17.50
2022-10-26T07:07:23.636Z,17.50
2022-10-26T07:09:50.688Z,17.60
2022-10-26T07:12:17.571Z,17.60
2022-10-26T07:14:44.388Z,17.70
2022-10-26T07:17:11.681Z,17.70
2022-10-26T07:19:40.435Z,17.70
2022-10-26T07:22:07.484Z,17.80
2022-10-26T07:24:34.400Z,17.80
2022-10-26T07:27:01.118Z,17.90
2022-10-26T07:29:28.173Z,18.00
2022-10-26T07:31:55.087Z,18.30
2022-10-26T07:34:21.859Z,18.80
2022-10-26T07:36:48.648Z,18.80
2022-10-26T07:39:15.371Z,18.80
2022-10-26T07:41:42.302Z,18.70
2022-10-26T07:44:09.152Z,18.60
2022-10-26T07:46:35.861Z,18.40
2022-10-26T07:49:02.624Z,18.30
2022-10-26T07:51:29.451Z,18.30
2022-10-26T07:53:56.220Z,18.20
2022-10-26T07:56:22.893Z,18.20
2022-10-26T07:58:55.356Z,18.10
2022-10-26T08:01:22.458Z,18.10
2022-10-26T08:03:53.599Z,18.10
2022-10-26T08:06:22.528Z,18.10
2022-10-26T08:08:50.059Z,18.10
2022-10-26T08:11:17.592Z,18.10
2022-10-26T08:13:44.438Z,18.10
2022-10-26T08:16:11.483Z,18.10
2022-10-26T08:18:38.331Z,18.10
2022-10-26T08:21:13.756Z,18.10
2022-10-26T08:23:45.281Z,18.10
2022-10-26T08:26:12.007Z,18.00
2022-10-26T08:28:39.772Z,18.00
2022-10-26T08:31:07.572Z,18.10
2022-10-26T08:33:34.368Z,18.20
2022-10-26T08:36:02.853Z,18.20
2022-10-26T08:38:29.793Z,18.30
2022-10-26T08:40:57.969Z,18.40
2022-10-26T08:43:42.803Z,18.50
2022-10-26T08:46:23.586Z,18.50
2022-10-26T08:48:55.800Z,18.60
2022-10-26T08:51:35.611Z,18.70
2022-10-26T08:54:17.224Z,18.90
2022-10-26T08:56:52.831Z,19.10
2022-10-26T08:59:55.508Z,19.30
2022-10-26T09:02:22.439Z,19.30
2022-10-26T09:04:49.420Z,19.40
2022-10-26T09:07:31.766Z,19.50
2022-10-26T09:10:18.767Z,19.60
2022-10-26T09:12:57.338Z,19.70
2022-10-26T09:15:40.234Z,19.70
2022-10-26T09:18:35.108Z,19.70
2022-10-26T09:21:15.479Z,19.60
2022-10-26T09:24:00.675Z,19.70
2022-10-26T09:27:18.023Z,19.80
2022-10-26T09:29:46.836Z,20.00
2022-10-26T09:32:23.456Z,20.10
2022-10-26T09:34:55.133Z,20.10
2022-10-26T09:37:37.994Z,20.20
2022-10-26T09:40:13.369Z,20.30
2022-10-26T09:42:42.144Z,20.50
2022-10-26T09:45:36.789Z,20.60
2022-10-26T09:48:30.201Z,20.60
2022-10-26T09:51:02.051Z,20.60
2022-10-26T09:53:32.086Z,20.60
2022-10-26T09:56:06.525Z,20.60
2022-10-26T09:58:44.825Z,20.70
2022-10-26T10:01:36.945Z,20.70
2022-10-26T10:04:26.903Z,20.70
2022-10-26T10:07:13.976Z,20.80
2022-10-26T10:09:40.967Z,20.80
2022-10-26T10:12:19.807Z,20.90
2022-10-26T10:14:57.881Z,20.90
2022-10-26T10:17:25.673Z,20.90
2022-10-26T10:19:52.613Z,20.90
2022-10-26T10:22:24.806Z,20.90
2022-10-26T10:25:00.181Z,21.00
2022-10-26T10:27:28.806Z,21.00
2022-10-26T10:30:01.319Z,21.00
2022-10-26T10:32:35.643Z,21.10
2022-10-26T10:35:24.063Z,21.20
2022-10-26T10:37:51.664Z,21.20
2022-10-26T10:40:21.283Z,21.30
2022-10-26T10:42:49.719Z,21.30
2022-10-26T10:45:29.223Z,21.40
2022-10-26T10:48:05.994Z,21.40
2022-10-26T10:50:33.988Z,21.40
2022-10-26T10:53:22.680Z,21.40
2022-10-26T10:55:54.821Z,21.40
2022-10-26T10:58:38.279Z,21.50
2022-10-26T11:01:12.830Z,21.50
2022-10-26T11:04:10.517Z,21.60
2022-10-26T11:06:40.419Z,21.60
2022-10-26T11:09:13.536Z,21.70
2022-10-26T11:11:55.107Z,21.90
2022-10-26T11:14:28.451Z,22.10
2022-10-26T11:17:25.480Z,22.20
2022-10-26T11:20:03.629Z,22.20
2022-10-26T11:22:36.545Z,22.20
2022-10-26T11:25:07.596Z,22.10
2022-10-26T11:28:17.352Z,22.00
2022-10-26T11:30:55.416Z,21.90
2022-10-26T11:33:36.830Z,21.80
2022-10-26T11:36:07.675Z,21.80
2022-10-26T11:38:56.810Z,21.80
2022-10-26T11:41:45.896Z,21.80
